Alexandria, Minnesota
Current Conditions -  °F | °C
As of 8:53 PM on Wednesday 24 Dec 2014 (Local Time) from KAXN Reporting Station
Overcast Overcast  
Wind Chill: -9°   Ceiling: 500
Heat Index: -2°   Visibility: 10mi
Dew Point: -3°   Wind: 15mph
Humidity: 92%   Direction: 210°SSW
Pressure: 29.54"   Gusts: NA
Location:  45.89°N, 95.37°W
Report Text: KAXN 250253Z AUTO 21013KT 10SM OVC005 M02/M03 A2954 RMK AO2 SLP022 T10221033 56010
Loading
Personal Weather Stations






























Interactive Weather Map New forecast layout! Learn more

10-Day Weather Forecast

Advertisements
Track Severe Weather on mobile